Main page
METAR-TAF:

METAR-TAF

Airports :

Mora–Siljan Airport

Mora, Sweden

latitude: 60-57-31N, longitude: 14-30-40E, elevation: 193 m

Current weather observation

The report was made 15 minutes ago, at 21:20 UTC
Wind 13 kt from the Southwest with gusts up to 25 kt
Temperature 6°C
Humidity 70%
Pressure 980 hPa
Visibility 10 km or more

METAR: ESKM 172120Z AUTO 23013G25KT 9999 NCD 06/01 Q0980

Time: 22:35 (21:35 UTC)


TAF: missing

Weather observations and forecasts of more than 4000 airports (METAR and TAF reports).

The available stations are represented by yellow and red dots on the map.

Hover mouse over dot to see the name of the station.

Then click to see weather observations and forecasts.

To change the map : click on the green buttons with a black cross to zoom in, on the green button with a dash to zoom out, or on the green arrows for adjacent maps.


METAR-TAF: